Terminal Aerodrome Forecast
Issued by NWS Mt. Holly, NJ

Home | Current Version | Previous Version | Text Only | Print | Product List | Glossary On
Versions: 1 2 3 4 5 6 7 8 9 10 11 12 13 14 15 16 17 18 19 20 21 22 23 24 25 26 27 28 29 30 31 32 33 34 35 36
000
FTUS41 KPHI 261513 AAC
TAFACY
TAF AMD
KACY 261513Z 2615/2712 17010KT P6SM SCT025 BKN100
      TEMPO 2615/2617 4SM TSRA BR OVC015CB
     FM261700 19012G22KT P6SM BKN040
     FM262200 22012G22KT 4SM TSRA BR OVC025CB
     FM270000 27012G24KT P6SM BKN035=

USA.gov is the U.S. government's official web portal to all federal, state and local government web resources and services.